Time;durP1;ratioP1;P1;durP2;ratioP2;P2;SDS_P1;SDS_P2;PMS_P1;PMS_P2;Temp;Humidity;BMP_temperature;BMP_pressure;BME280_temperature;BME280_humidity;BME280_pressure;Samples;Min_cycle;Max_cycle;Signal;HPM_P1;HPM_P2
2021/10/17 00:04:14;;;;;;;1.53;0.77;;;19.00;99.90;;;;;;20653976;28;20223;-68
2021/10/17 00:14:19;;;;;;;0.50;0.43;;;18.90;99.90;;;;;;20657710;28;20282;-67
2021/10/17 00:24:23;;;;;;;1.23;0.97;;;18.70;99.90;;;;;;20656409;28;20227;-67
2021/10/17 00:34:27;;;;;;;0.43;0.43;;;18.60;99.90;;;;;;20654197;28;20200;-68
2021/10/17 00:44:32;;;;;;;1.80;0.97;;;18.60;99.90;;;;;;20655960;28;20642;-68
2021/10/17 00:54:38;;;;;;;0.53;0.50;;;18.50;99.90;;;;;;20654075;28;20330;-68
2021/10/17 01:04:42;;;;;;;0.87;0.87;;;18.40;99.90;;;;;;20655692;28;20370;-69
2021/10/17 01:14:48;;;;;;;0.40;0.40;;;18.40;99.90;;;;;;20644869;28;20202;-68
2021/10/17 01:24:53;;;;;;;0.63;0.40;;;18.10;99.90;;;;;;20609612;28;20255;-68
2021/10/17 01:34:56;;;;;;;3.60;0.50;;;17.70;99.90;;;;;;20573495;28;20208;-68
2021/10/17 01:45:02;;;;;;;1.47;0.70;;;17.40;99.90;;;;;;20571878;28;20363;-68
2021/10/17 01:55:06;;;;;;;1.80;0.93;;;17.10;99.90;;;;;;20607535;28;20581;-68
2021/10/17 02:05:12;;;;;;;0.20;0.20;;;16.90;99.90;;;;;;20652865;28;20725;-68
2021/10/17 02:15:15;;;;;;;1.27;0.93;;;16.80;99.90;;;;;;20650154;28;20238;-67
2021/10/17 02:25:20;;;;;;;0.47;0.47;;;16.70;99.90;;;;;;20651104;28;20229;-68
2021/10/17 02:35:24;;;;;;;0.73;0.73;;;16.40;99.90;;;;;;20665679;28;20220;-68
2021/10/17 02:45:29;;;;;;;1.27;0.77;;;16.20;99.90;;;;;;20659444;28;20591;-68
2021/10/17 02:55:33;;;;;;;0.20;0.20;;;16.10;99.90;;;;;;20623208;28;20232;-67
2021/10/17 03:05:38;;;;;;;1.13;1.03;;;16.00;99.90;;;;;;20584832;28;20231;-68
2021/10/17 03:15:41;;;;;;;1.43;0.93;;;15.90;99.90;;;;;;20584456;28;20225;-68
2021/10/17 03:25:46;;;;;;;0.73;0.57;;;15.80;99.90;;;;;;20584235;28;20304;-67
2021/10/17 03:35:50;;;;;;;0.30;0.30;;;15.80;99.90;;;;;;20582601;28;20204;-68
2021/10/17 03:45:55;;;;;;;0.60;0.57;;;15.60;99.90;;;;;;20581423;28;20279;-68
2021/10/17 03:55:59;;;;;;;0.70;0.70;;;15.50;99.90;;;;;;20621277;28;20223;-67
2021/10/17 04:06:07;;;;;;;0.57;0.57;;;15.30;99.90;;;;;;20663182;23;20242;-79
2021/10/17 04:16:11;;;;;;;0.40;0.40;;;15.30;99.90;;;;;;20660745;28;20286;-79
2021/10/17 04:26:16;;;;;;;1.57;1.23;;;15.30;99.90;;;;;;20659399;28;20628;-79
2021/10/17 04:36:19;;;;;;;1.47;0.73;;;15.50;99.90;;;;;;20660014;28;20511;-79
2021/10/17 04:46:24;;;;;;;0.50;0.50;;;15.50;99.90;;;;;;20659819;28;20629;-77
2021/10/17 04:56:28;;;;;;;0.40;0.40;;;15.50;99.90;;;;;;20657339;28;20187;-77
2021/10/17 05:06:33;;;;;;;2.63;1.17;;;15.40;99.90;;;;;;20656557;28;20241;-78
2021/10/17 05:16:47;;;;;;;2.87;1.10;;;15.40;99.90;;;;;;20657059;28;20287;-77
2021/10/17 05:26:52;;;;;;;0.73;0.57;;;15.40;99.90;;;;;;20655842;28;20238;-77
2021/10/17 05:36:55;;;;;;;0.20;0.10;;;15.20;99.90;;;;;;20654929;28;20199;-77
2021/10/17 05:47:01;;;;;;;1.30;1.20;;;15.10;99.90;;;;;;20654376;28;20219;-77
2021/10/17 05:57:05;;;;;;;0.90;0.83;;;15.00;99.90;;;;;;20607528;28;20196;-79
2021/10/17 06:07:10;;;;;;;0.67;0.57;;;15.10;99.90;;;;;;20574441;28;20243;-76
2021/10/17 06:17:14;;;;;;;2.37;2.00;;;15.10;99.90;;;;;;20571997;28;20208;-76
2021/10/17 06:27:19;;;;;;;2.53;2.10;;;14.90;99.90;;;;;;20571751;28;20328;-77
2021/10/17 06:37:23;;;;;;;2.20;1.63;;;14.90;99.90;;;;;;20571499;28;20531;-80
2021/10/17 06:47:28;;;;;;;1.70;1.60;;;15.00;99.90;;;;;;20570526;28;20228;-80
2021/10/17 06:57:31;;;;;;;0.60;0.37;;;15.20;99.90;;;;;;20629295;28;20203;-79
2021/10/17 07:07:37;;;;;;;2.43;0.83;;;15.50;99.90;;;;;;20650789;28;20243;-74
2021/10/17 07:17:41;;;;;;;0.40;0.40;;;15.80;99.90;;;;;;20650658;28;20196;-78
2021/10/17 07:28:06;;;;;;;1.47;0.83;;;16.30;99.90;;;;;;20650969;28;20234;-77
2021/10/17 07:38:09;;;;;;;1.33;1.00;;;16.70;99.90;;;;;;20663491;28;20291;-76
2021/10/17 07:48:14;;;;;;;1.37;1.27;;;17.00;99.90;;;;;;20662442;28;20265;-75
2021/10/17 07:58:18;;;;;;;0.80;0.80;;;17.40;99.90;;;;;;20631962;28;20202;-79
2021/10/17 08:08:23;;;;;;;2.30;0.83;;;18.00;99.90;;;;;;20651797;28;20348;-78
2021/10/17 08:18:26;;;;;;;1.63;1.10;;;18.50;99.90;;;;;;20605275;28;20201;-77
2021/10/17 08:28:32;;;;;;;1.10;0.83;;;18.80;99.90;;;;;;20614674;28;20216;-77
2021/10/17 08:38:40;;;;;;;1.63;0.50;;;19.00;99.90;;;;;;20618577;28;20215;-76
2021/10/17 08:48:51;;;;;;;0.67;0.60;;;19.60;99.90;;;;;;20657643;28;20227;-76
2021/10/17 08:58:55;;;;;;;0.20;0.20;;;19.50;99.90;;;;;;20587690;28;20286;-74
2021/10/17 09:09:09;;;;;;;2.30;1.50;;;19.70;99.90;;;;;;20573262;28;20246;-75
2021/10/17 09:19:16;;;;;;;1.13;1.03;;;19.80;99.90;;;;;;20573927;28;20254;-76
2021/10/17 09:29:31;;;;;;;0.53;0.53;;;20.30;99.90;;;;;;20571375;28;20415;-75
2021/10/17 09:39:36;;;;;;;0.80;0.80;;;20.20;99.90;;;;;;20590403;28;20270;-73
2021/10/17 09:49:42;;;;;;;1.17;1.07;;;20.50;99.90;;;;;;20614534;28;20220;-73
2021/10/17 09:59:46;;;;;;;0.50;0.50;;;20.70;99.90;;;;;;20608214;28;20540;-72
2021/10/17 10:09:51;;;;;;;0.40;0.30;;;20.70;99.90;;;;;;20599841;28;20342;-76
2021/10/17 10:19:58;;;;;;;0.83;0.53;;;21.40;99.90;;;;;;20602564;28;20204;-76
2021/10/17 10:30:28;;;;;;;1.40;1.27;;;20.80;99.90;;;;;;20569146;28;20410;-74
2021/10/17 10:40:32;;;;;;;0.50;0.50;;;21.60;99.90;;;;;;20582912;28;20279;-73
2021/10/17 10:50:40;;;;;;;4.55;2.10;;;22.60;99.90;;;;;;20609233;28;20227;-73
2021/10/17 11:00:48;;;;;;;2.05;1.10;;;23.00;99.90;;;;;;20627592;28;20655;-74
2021/10/17 11:10:54;;;;;;;0.67;0.67;;;23.10;99.90;;;;;;20630281;28;20219;-72
2021/10/17 11:21:02;;;;;;;0.95;0.68;;;22.10;99.90;;;;;;20612956;28;20185;-70
2021/10/17 11:31:10;;;;;;;0.45;0.45;;;22.80;99.90;;;;;;20585308;28;20228;-72
2021/10/17 11:41:15;;;;;;;0.93;0.43;;;23.90;99.90;;;;;;20583290;28;20200;-72
2021/10/17 11:51:23;;;;;;;3.08;1.60;;;22.70;99.90;;;;;;20641130;28;20864;-72
2021/10/17 12:01:27;;;;;;;1.88;1.77;;;23.90;99.90;;;;;;20577824;28;20224;-70
2021/10/17 12:11:32;;;;;;;1.48;1.38;;;24.50;99.90;;;;;;20604510;28;20233;-74
2021/10/17 12:21:41;;;;;;;1.13;1.00;;;24.20;99.90;;;;;;20655871;28;20270;-73
2021/10/17 12:31:51;;;;;;;1.95;1.40;;;25.00;99.90;;;;;;20658393;28;20273;-73
2021/10/17 12:41:59;;;;;;;0.80;0.65;;;24.60;99.90;;;;;;20659032;28;20679;-74
2021/10/17 12:52:08;;;;;;;2.22;0.93;;;23.50;99.90;;;;;;20644556;28;20574;-74
2021/10/17 13:02:14;;;;;;;4.85;1.67;;;24.30;99.90;;;;;;20575075;28;20232;-74
2021/10/17 13:12:26;;;;;;;0.88;0.50;;;23.30;99.90;;;;;;20557754;28;20689;-74
2021/10/17 13:22:30;;;;;;;0.63;0.63;;;24.50;99.90;;;;;;20573311;28;20214;-74
2021/10/17 13:32:36;;;;;;;0.68;0.68;;;23.50;99.90;;;;;;20595472;28;20224;-75
2021/10/17 13:53:16;;;;;;;0.60;0.60;;;23.90;99.90;;;;;;20973935;23;20225;-70
2021/10/17 14:03:20;;;;;;;0.68;0.68;;;26.60;99.90;;;;;;20346871;29;20679;-69
2021/10/17 14:13:32;;;;;;;2.38;1.05;;;26.90;99.90;;;;;;20382576;29;20570;-68
2021/10/17 14:23:35;;;;;;;1.08;1.05;;;26.50;99.90;;;;;;20406554;29;20197;-70
2021/10/17 14:33:40;;;;;;;0.98;0.85;;;26.20;99.90;;;;;;20399689;29;20250;-69
2021/10/17 14:43:44;;;;;;;0.68;0.65;;;26.30;99.90;;;;;;20339413;29;20190;-68
2021/10/17 14:53:49;;;;;;;1.33;0.93;;;25.40;99.90;;;;;;20345949;29;20237;-70
2021/10/17 15:03:53;;;;;;;2.42;1.13;;;25.70;99.90;;;;;;20344798;29;20226;-69
2021/10/17 15:13:58;;;;;;;1.23;1.10;;;25.20;99.90;;;;;;20342911;29;20719;-69
2021/10/17 15:24:03;;;;;;;0.65;0.65;;;24.00;99.90;;;;;;20343350;29;20210;-67
2021/10/17 15:34:10;;;;;;;0.30;0.20;;;23.50;99.90;;;;;;20343460;29;20232;-68
2021/10/17 15:44:16;;;;;;;1.17;0.47;;;22.90;99.90;;;;;;20339695;29;20198;-67
2021/10/17 15:54:22;;;;;;;3.20;1.27;;;22.40;99.90;;;;;;20338903;29;20361;-67
2021/10/17 16:04:25;;;;;;;4.72;0.50;;;22.10;99.90;;;;;;20369576;29;20242;-67
2021/10/17 16:14:30;;;;;;;0.67;0.37;;;21.80;99.90;;;;;;20412544;29;20223;-68
2021/10/17 16:24:37;;;;;;;0.70;0.70;;;21.40;99.90;;;;;;20415087;29;20624;-68
2021/10/17 16:34:47;;;;;;;1.60;0.73;;;21.10;99.90;;;;;;20396844;29;20209;-68
2021/10/17 16:44:54;;;;;;;1.73;0.53;;;20.70;99.90;;;;;;20331174;29;20214;-69
2021/10/17 16:54:59;;;;;;;1.47;1.07;;;20.60;99.90;;;;;;20333601;29;20230;-67
2021/10/17 17:05:03;;;;;;;1.07;0.97;;;20.40;99.90;;;;;;20335128;29;20238;-67
2021/10/17 17:15:09;;;;;;;1.57;1.10;;;20.20;99.90;;;;;;20404531;29;20201;-67
2021/10/17 17:25:15;;;;;;;0.63;0.47;;;19.70;99.90;;;;;;20410065;29;20229;-66
2021/10/17 17:35:23;;;;;;;0.40;0.37;;;19.90;99.90;;;;;;20339648;29;20677;-67
2021/10/17 17:45:26;;;;;;;0.90;0.67;;;20.00;99.90;;;;;;20331982;29;20706;-66
2021/10/17 17:55:32;;;;;;;0.67;0.47;;;19.80;99.90;;;;;;20333750;29;20627;-68
2021/10/17 18:05:35;;;;;;;0.50;0.50;;;19.50;99.90;;;;;;20332172;29;20226;-68
2021/10/17 18:15:42;;;;;;;1.23;0.53;;;19.30;99.90;;;;;;20332013;29;20561;-68
2021/10/17 18:25:45;;;;;;;1.10;0.73;;;19.00;99.90;;;;;;20331908;29;20320;-67
2021/10/17 18:35:51;;;;;;;0.30;0.30;;;18.80;99.90;;;;;;20330162;29;20198;-68
2021/10/17 18:45:55;;;;;;;0.90;0.73;;;18.60;99.90;;;;;;20329721;29;20242;-66
2021/10/17 18:56:02;;;;;;;0.50;0.43;;;18.50;99.90;;;;;;20330770;29;20206;-68
2021/10/17 19:06:05;;;;;;;0.60;0.60;;;18.30;99.90;;;;;;20328994;29;20265;-67
2021/10/17 19:16:11;;;;;;;0.70;0.50;;;18.00;99.90;;;;;;20329385;29;20206;-66
2021/10/17 19:26:15;;;;;;;1.27;0.53;;;17.90;99.90;;;;;;20335003;29;20725;-67
2021/10/17 19:36:20;;;;;;;0.50;0.47;;;17.70;99.90;;;;;;20342943;29;20206;-67
2021/10/17 19:46:23;;;;;;;0.70;0.70;;;17.60;99.90;;;;;;20344538;29;20246;-66
2021/10/17 19:56:28;;;;;;;0.80;0.60;;;17.30;99.90;;;;;;20342798;29;20290;-67
2021/10/17 20:06:32;;;;;;;0.30;0.30;;;17.30;99.90;;;;;;20340919;29;20226;-67
2021/10/17 20:16:37;;;;;;;0.27;0.23;;;17.20;99.90;;;;;;20341785;29;20210;-68
2021/10/17 20:27:01;;;;;;;1.13;1.03;;;17.20;99.90;;;;;;20339904;29;20324;-67
2021/10/17 20:37:21;;;;;;;0.30;0.30;;;17.00;99.90;;;;;;20338088;29;20666;-66
2021/10/17 20:47:25;;;;;;;1.17;0.63;;;17.20;99.90;;;;;;20340545;29;20234;-67
2021/10/17 20:57:30;;;;;;;1.33;0.73;;;17.30;99.90;;;;;;20332348;29;20237;-67
2021/10/17 21:07:33;;;;;;;1.00;0.63;;;17.40;99.90;;;;;;20310032;29;20226;-66
2021/10/17 21:17:38;;;;;;;0.40;0.40;;;17.50;99.90;;;;;;20333333;29;20821;-66
2021/10/17 21:27:42;;;;;;;0.30;0.30;;;17.30;99.90;;;;;;20261460;29;20234;-66
2021/10/17 21:37:47;;;;;;;0.27;0.27;;;17.20;99.90;;;;;;20260845;29;20203;-66
2021/10/17 21:47:50;;;;;;;1.27;0.97;;;17.20;99.90;;;;;;20269211;29;20256;-68
2021/10/17 21:57:55;;;;;;;0.37;0.37;;;17.20;99.90;;;;;;20324306;29;20246;-67
2021/10/17 22:07:59;;;;;;;0.83;0.50;;;17.20;99.90;;;;;;20318730;29;20320;-68
2021/10/17 22:18:04;;;;;;;2.00;0.77;;;17.20;99.90;;;;;;20369935;29;20197;-68
2021/10/17 22:28:08;;;;;;;0.43;0.30;;;17.50;99.90;;;;;;20381189;29;20225;-69
2021/10/17 22:38:13;;;;;;;0.50;0.50;;;17.70;99.90;;;;;;20371747;29;20193;-66
2021/10/17 22:48:16;;;;;;;0.20;0.20;;;17.80;99.90;;;;;;20370129;29;20248;-66
2021/10/17 22:58:21;;;;;;;0.40;0.40;;;17.90;99.90;;;;;;20374473;29;20206;-67
2021/10/17 23:08:25;;;;;;;0.27;0.27;;;18.10;99.90;;;;;;20372625;29;20230;-66
2021/10/17 23:18:30;;;;;;;0.20;0.10;;;18.20;99.90;;;;;;20346491;29;20217;-67
2021/10/17 23:28:33;;;;;;;2.37;0.70;;;18.30;99.90;;;;;;20348812;29;20226;-66
2021/10/17 23:38:39;;;;;;;0.20;0.10;;;18.40;99.90;;;;;;20339410;29;20286;-67
2021/10/17 23:48:43;;;;;;;0.40;0.40;;;18.30;99.90;;;;;;20352953;29;20265;-67
2021/10/17 23:58:48;;;;;;;0.20;0.17;;;18.40;99.90;;;;;;20345850;29;20739;-67
